Terminal Aerodrome Forecast
Issued by NWS

Home | Current Version | Previous Version | Text Only | Print | Product List | Glossary On
Versions: 1 2 3 4 5 6 7 8 9 10 11 12 13 14 15 16 17 18 19 20 21
000
FTUS43 KGRR 281700
TAFMKG
TAF
KMKG 281740Z 2818/0118 19009KT P6SM VCSH BKN025
      TEMPO 2818/2819 4SM -SN
     FM282000 17008KT P6SM SKC
     FM010300 15006KT P6SM BKN080
     FM010600 19007KT 3SM -SN OVC015=

USA.gov is the U.S. government's official web portal to all federal, state and local government web resources and services.